Atkinson, IL

10:03 AM CST on March 06, 2015 (GMT -0600)
Country Manor | Change Station
CLOSE
Current Station
Personal Weather Station
Location: Geneseo, IL
Elevation: 623 ft
Nearby Weather Stations

Elev 623 ft 41.47 °N, 90.14 °W | Updated 33 seconds ago

Clear
Clear
19.1 °F
Feels Like 8 °F
N
9.0
Wind Variable Wind from South

Today
High -- | Low -- °F
--% Chance of Precip.
Yesterday
High -- | Low -- °F
Precip. -- in
6:27 AM 5:56 PM
Full, 99% visible
Pressure 30.32 in
Visibility 10.0 miles
Clouds Few 9500 ft
Windchill 8 °F
Dew Point 11 °F
Humidity 69%
Rainfall in
Snow Depth Not available.
UV 3 out of 12
Pollen .30 out of 12
Air Quality Not available.
Flu Activity Not available.
METAR KMLI 061552Z 19008G16KT 10SM FEW095 M05/M13 A3028 RMK AO2 SLP267 T10501128

More Conditions Fewer Conditions

Pressure 30.32 in
Visibility 10.0 miles
Clouds Few 9500 ft
Windchill 8 °F
Dew Point 11 °F
Humidity 69%
Rainfall in
Snow Depth Not available.
UV 3 out of 12
Pollen .30 out of 12
Air Quality Not available.
Flu Activity Not available.
METAR KMLI 061552Z 19008G16KT 10SM FEW095 M05/M13 A3028 RMK AO2 SLP267 T10501128

More Conditions Fewer Conditions

10-Day Weather Forecast

Almanac

Astronomy

Mar. 06, 2015 Rise Set
Actual Time
Civil Twilight
Nautical Twilight
Astronomical Twilight
Moon
Length of Visible Light
Length of Day
Tomorrow will be .
, % of the Moon is Illuminated

Today's Extremes

State Highs State Lows

Community

WunderPhotos

Upload Photos

1,803,327 photos uploaded!

WunderBlogs® & News

Nearby

Air Quality

  Air Quality AQ Index Pollutant
Not available.

Snow Depth

Station Depth Elevation

Earthquake Activity

City Distance Mag. Time & Date
Minimum magnitude displayed is 2.5.

Coastal Water Temperatures

Place Temperature

Nearby Weather Stations